Tiempo atmosférico en la estación meteorológica de Cabo Peñas, Asturias (100 m.)



Fecha
DESCASC
Temp. máxima en grados centígrados (hora)
DESCASC
Temp. mínima en grados centígrados (hora)
DESCASC
Temp. media en grados centígrados
DESCASC
Racha de viento máxima en m/sg (hora)
DESCASC
Velocidad máxima media en intervalos de 10 minutos(hora)
DESCASC
Precipitaciones diarias en mm
DESCASC
Precipitaciones de 00:00 a 06:00 en mm
DESCASC
Precipitaciones de 06:00 a 12:00 en mm
DESCASC
Precipitaciones de 12:00 a 18:00 en mm
DESCASC
Precipitaciones de 18:00 a 24:00 en mm
DESCASC
15-08-2019 22.4 (14:10) 17.3 (02:50) 19.8 10.28 (02:50) 5.56 (01:50) 0 0 0 0 0
14-08-2019 22.5 (13:30) 15.2 (00:00) 18.8 16.39 (18:10) 6.11 (21:30) 0 0 0 0 0
13-08-2019 -- (--) -- (--) -- -- (--) -- (--) -- 0 0 -- --
12-08-2019 19.5 (15:20) 14.6 (00:00) 17.1 17.5 (00:50) 6.67 (10:30) 6.2 5.4 0.8 0 0
11-08-2019 19.9 (11:40) 15.6 (00:00) 17.8 13.61 (23:10) 7.5 (16:20) 0.3 0.2 0 0 0.1
10-08-2019 23 (16:40) 18.6 (00:00) 20.8 12.78 (02:30) 5.83 (12:40) 0 0 0 0 0
09-08-2019 25.6 (14:20) 19.6 (00:00) 22.6 16.39 (22:30) 7.78 (10:30) 0 0 0 0 0
08-08-2019 -- (--) -- (--) -- -- (--) -- (--) -- -- -- -- 0
07-08-2019 -- (--) -- (--) -- -- (--) -- (--) -- -- -- -- --
06-08-2019 -- (--) -- (--) -- -- (--) -- (--) -- -- -- -- --
05-08-2019 -- (--) -- (--) -- -- (--) -- (--) -- -- -- -- --
04-08-2019 -- (--) -- (--) -- -- (--) -- (--) -- 0 0 0 --
03-08-2019 22.9 (14:40) 18.7 (00:00) 20.8 8.61 (00:10) 6.11 (00:20) 0 0 0 0 0
02-08-2019 22.3 (14:20) 16.9 (00:00) 19.6 10.56 (18:40) 6.94 (19:30) 0 0 0 0 0
01-08-2019 20.4 (16:50) 17 (00:00) 18.7 10.56 (04:40) 6.67 (04:40) 1.2 0 0.9 0.3 0
31-07-2019 20.8 (14:10) 15.3 (00:00) 18 11.11 (20:10) 6.67 (20:30) 0 0 0 0 0
30-07-2019 19.5 (13:10) 16.4 (00:00) 17.9 17.78 (02:30) 9.72 (01:20) 0 0 0 0 0
29-07-2019 21.1 (13:10) 17 (00:00) 19.1 19.44 (17:40) 10.28 (16:20) 0 0 0 0 0
28-07-2019 21.6 (16:50) 14.5 (00:00) 18.1 12.5 (20:40) 8.06 (20:40) 0 0 0 0 0
27-07-2019 19.3 (18:20) 15 (00:00) 17.1 8.89 (20:50) 4.44 (16:30) 9.4 0.1 7.8 0.4 1.1
26-07-2019 19.9 (13:40) 17 (00:00) 18.4 9.72 (15:20) 5.56 (10:40) 2.8 2.7 0 0 0.1
25-07-2019 23.8 (15:20) 18.1 (00:00) 20.9 10 (16:10) 6.39 (16:50) 6.3 0 0 1.4 4.9
24-07-2019 24.1 (14:10) 17.4 (00:00) 20.8 8.89 (14:10) 5.56 (13:00) 0 0 0 0 0
23-07-2019 21.9 (12:00) 19.4 (00:00) 20.6 10.28 (20:00) 7.22 (19:00) 0 0 0 0 0
22-07-2019 21.6 (12:20) 19.7 (00:00) 20.7 9.72 (04:30) 6.39 (08:50) 0 0 0 0 0
21-07-2019 21.7 (18:50) 18.4 (00:00) 20.1 8.33 (23:40) 5 (23:40) 3.1 0 2.8 0.3 0
20-07-2019 22.2 (11:30) 17.2 (00:00) 19.7 6.39 (12:10) 4.17 (09:20) 0 0 0 0 0
19-07-2019 22.5 (14:40) 16.3 (00:00) 19.4 7.22 (15:00) 4.17 (15:00) 0 0 0 0 0

Gráficas

Temp. máximas Temp. mínimas Temp. medias Precipitaciones Rachas de viento máximas Velocidades máximas media en intervalos de 10 minutos

Datos horarios

Fecha y hora oficial Temperatura (ºC) Velocidad del viento (km/h) Dirección del viento Racha (km/h) Dirección de racha Precipitación (mm) Presión (hPa) Tendencia (hPa) Humedad (%)
2019-08-17 23:00:00 21.5 10 Sudeste 16 Sudeste 0 -- -- 86
2019-08-17 22:00:00 21.2 10 Sudeste 14 Sudeste 0 -- -- 88
2019-08-17 21:00:00 21.7 9 Sudeste 20 Este 0 -- -- 86
2019-08-17 20:00:00 22.5 17 Sudeste 24 Este 0 -- -- 80
2019-08-17 19:00:00 23.3 18 Sudeste 25 Sudeste 0 -- -- 83
2019-08-17 18:00:00 24.2 15 Sudeste 19 Este 0 -- -- 74
2019-08-17 17:00:00 25.3 13 Este 17 Este 0 -- -- 70
2019-08-17 16:00:00 24.1 5 Nordeste 13 Nordeste 0 -- -- 71
2019-08-17 15:00:00 24.3 10 Este 16 Este 0 -- -- 69
2019-08-17 14:00:00 24.6 4 Nordeste 9 Este 0 -- -- 66
2019-08-17 13:00:00 24.5 4 Norte 9 Noroeste 0 -- -- 62
2019-08-17 12:00:00 24.7 3 Norte 13 Sudoeste 0 -- -- 63
2019-08-17 11:00:00 24.6 9 Sudoeste 15 Sudoeste 0 -- -- 59
2019-08-17 10:00:00 22.8 6 Sur 15 Sur 0 -- -- 73
2019-08-17 09:00:00 20 4 Sur 14 Sudoeste 0 -- -- 87
2019-08-17 08:00:00 18.9 10 Sudoeste 15 Sudoeste 0 -- -- 91
2019-08-17 07:00:00 18.8 8 Sudoeste 11 Sudoeste 0 -- -- 90
2019-08-17 06:00:00 18.2 6 Oeste 8 Noroeste 0 -- -- 91
2019-08-17 05:00:00 18.2 4 Oeste 10 Sur 0 -- -- 90
2019-08-17 04:00:00 18.6 3 Sur 17 Sudeste 0 -- -- 90
2019-08-17 03:00:00 18.8 14 Sudeste 20 Sudeste 0 -- -- 90
2019-08-17 02:00:00 19.1 5 Sudeste 14 Sudeste 0 -- -- 88
2019-08-17 01:00:00 19.1 3 Sur 7 Sudeste 0 -- -- 88
2019-08-17 00:00:00 19.2 4 Sur 12 Oeste 0 -- -- 88
2019-08-16 23:00:00 19.4 7 Sudoeste 12 Sudoeste 0 -- -- 87
2019-08-16 22:00:00 19.4 10 Sudoeste 14 Sudoeste 0 -- -- 87
2019-08-16 21:00:00 19.8 8 Oeste 19 Oeste 0 -- -- 86
2019-08-16 20:00:00 20 10 Oeste 18 Oeste 0 -- -- 83
2019-08-16 19:00:00 20.6 8 Oeste 19 Noroeste 0 -- -- 83
2019-08-16 18:00:00 19.8 9 Oeste 27 Noroeste 0 -- -- 84
2019-08-16 17:00:00 19.9 15 Noroeste 31 Noroeste 0 -- -- 84
2019-08-16 16:00:00 20 16 Noroeste 28 Noroeste 0 -- -- 86
2019-08-16 15:00:00 20.1 11 Noroeste 24 Oeste 0 -- -- 87
2019-08-16 14:00:00 20.4 12 Oeste 23 Oeste 0 -- -- 84
2019-08-16 13:00:00 19.8 10 Oeste 20 Oeste 0 -- -- 82
2019-08-16 12:00:00 19.5 7 Noroeste 16 Oeste 0 -- -- 84
2019-08-16 11:00:00 19.1 10 Sudoeste 16 Oeste 0 -- -- 87
2019-08-16 10:00:00 17.4 12 Oeste 17 Sudoeste 0 -- -- 90
2019-08-16 09:00:00 16.4 9 Sudoeste 12 Sudoeste 0 -- -- 91
2019-08-16 08:00:00 15.5 10 Sudoeste 12 Sudoeste 0 -- -- 91
2019-08-16 07:00:00 16.5 5 Sur 12 Sudeste 0 -- -- 87
2019-08-16 06:00:00 16.4 4 Sudeste 13 Sudeste 0 -- -- 88
2019-08-16 05:00:00 16.4 3 Sudeste 9 Sudeste 0 -- -- 88
2019-08-16 04:00:00 16.6 4 Sur 13 Sudoeste 0 -- -- 88
2019-08-16 03:00:00 17.2 5 Sudeste 17 Sudeste 0 -- -- 86
2019-08-16 02:00:00 17.4 14 Sudeste 21 Sudeste 0 -- -- 88
2019-08-16 01:00:00 17.7 10 Sudeste 21 Este 0 -- -- 88
2019-08-16 00:00:00 18.5 15 Este 24 Este 0 -- -- 86
2019-08-15 23:00:00 18.4 17 Este 29 Este 0 -- -- 82
2019-08-15 22:00:00 18.9 14 Este 23 Este 0 -- -- 76
2019-08-15 21:00:00 19.4 14 Sudeste 24 Este 0 -- -- 71
2019-08-15 20:00:00 19.6 15 Este 22 Este 0 -- -- 67
2019-08-15 19:00:00 20.1 14 Este 21 Sudeste 0 -- -- 63
2019-08-15 18:00:00 21 9 Este 18 Este 0 -- -- 60
2019-08-15 17:00:00 21.2 5 Este 16 Este 0 -- -- 60
2019-08-15 16:00:00 21.6 3 Este 13 Sudeste 0 -- -- 59
2019-08-15 15:00:00 22 4 Este 14 Este 0 -- -- 59
2019-08-15 14:00:00 22 3 Sur 12 Sur 0 -- -- 62
2019-08-15 13:00:00 20.8 2 Sur 14 Noroeste 0 -- -- 70
2019-08-15 12:00:00 19.9 5 Noroeste 14 Oeste 0 -- -- 73
2019-08-15 11:00:00 19.7 2 Noroeste 9 Noroeste 0 -- -- 72
2019-08-15 10:00:00 19.1 6 Noroeste 16 Noroeste 0 -- -- 73
2019-08-15 09:00:00 18.7 6 Noroeste 17 Noroeste 0 -- -- 76
2019-08-15 08:00:00 18.1 13 Noroeste 23 Noroeste 0 -- -- 76
2019-08-15 07:00:00 18 12 Noroeste 26 Noroeste 0 -- -- 79
2019-08-15 06:00:00 18 11 Noroeste 28 Noroeste 0 -- -- 82
2019-08-15 05:00:00 18.1 12 Noroeste 29 Noroeste 0 -- -- 82
2019-08-15 04:00:00 18.1 14 Noroeste 33 Noroeste 0 -- -- 84
2019-08-15 03:00:00 17.4 18 Noroeste 37 Noroeste 0 -- -- 88
2019-08-15 02:00:00 17.6 18 Noroeste 32 Noroeste 0 -- -- 91
2019-08-15 01:00:00 18.1 18 Noroeste 31 Noroeste 0 -- -- 91
2019-08-15 00:00:00 18.5 18 Noroeste 33 Noroeste 0 -- -- 93
2019-08-14 23:00:00 19.1 18 Noroeste 33 Noroeste 0 -- -- 93
2019-08-14 22:00:00 19.4 17 Noroeste 39 Norte 0 -- -- 93
2019-08-14 21:00:00 19.9 10 Noroeste 30 Noroeste 0 -- -- 93
2019-08-14 20:00:00 20.2 12 Noroeste 31 Oeste 0 -- -- 92
2019-08-14 19:00:00 20.4 13 Noroeste 59 Oeste 0 -- -- 91
2019-08-14 18:00:00 21.3 15 Oeste 25 Oeste 0 -- -- 87
2019-08-14 17:00:00 21.6 13 Oeste 21 Oeste 0 -- -- 86
2019-08-14 16:00:00 21.4 9 Oeste 22 Noroeste 0 -- -- 84
2019-08-14 15:00:00 21.2 9 Noroeste 21 Norte 0 -- -- 74
2019-08-14 14:00:00 21.6 7 Noroeste 18 Noroeste 0 -- -- 66
2019-08-14 13:00:00 21.1 6 Noroeste 13 Sudoeste 0 -- -- 60
2019-08-14 12:00:00 20.9 9 Sudoeste 15 Sudoeste 0 -- -- 65
2019-08-14 11:00:00 19.7 8 Oeste 14 Oeste 0 -- -- 71
2019-08-14 10:00:00 19.6 10 Sudoeste 16 Sudoeste 0 -- -- 73
2019-08-14 09:00:00 18.2 12 Sudoeste 17 Sudoeste 0 -- -- 84
2019-08-14 08:00:00 16.7 12 Sudoeste 17 Sudoeste 0 -- -- 91
2019-08-14 07:00:00 16.1 13 Sudoeste 18 Sudoeste 0 -- -- 92
2019-08-14 06:00:00 15.9 14 Oeste 17 Sudoeste 0 -- -- 92
2019-08-14 05:00:00 15.9 13 Sudoeste 17 Sudoeste 0 -- -- 90
2019-08-14 04:00:00 17 12 Sudoeste 15 Sudoeste 0 -- -- 84
2019-08-14 03:00:00 17 9 Sur 13 Sur 0 -- -- 84
2019-08-14 02:00:00 17.9 9 Sudeste 18 Sudeste 0 -- -- 79
2019-08-14 01:00:00 17.5 15 Sudeste 24 Sudeste 0 -- -- 84
2019-08-14 00:00:00 17.9 17 Sudeste 24 Este 0 -- -- 84
2019-08-13 23:00:00 18.4 17 Este 27 Este 0 -- -- 82
2019-08-13 22:00:00 18.4 19 Este 28 Este 0 -- -- 81
2019-08-13 21:00:00 19 18 Este 29 Este 0 -- -- 76
2019-08-13 20:00:00 19.4 18 Este 32 Este 0 -- -- 76
2019-08-13 19:00:00 19.7 18 Este -- -- -- -- -- 74
2019-08-13 18:00:00 -- -- -- -- -- -- -- -- --
2019-08-13 17:00:00 21.5 18 Este 31 Este 0 -- -- 68
2019-08-13 16:00:00 20.3 18 Este 29 Sudeste 0 -- -- 72
2019-08-13 15:00:00 20.1 13 Este 24 Este 0 -- -- 68
2019-08-13 14:00:00 19.8 7 Este 18 Este 0 -- -- 74
2019-08-13 13:00:00 19.8 10 Este 17 Sudeste 0 -- -- 74
2019-08-13 12:00:00 19.7 5 Este 12 Este 0 -- -- 73
2019-08-13 11:00:00 19.8 4 Nordeste 8 Nordeste 0 -- -- 71
2019-08-13 10:00:00 19.4 2 Este 8 Este 0 -- -- 74
2019-08-13 09:00:00 16.5 3 Sur 9 Sur 0 -- -- 82
2019-08-13 08:00:00 15.2 4 Sur 6 Sur 0 -- -- 83
2019-08-13 07:00:00 15.6 3 Sur 7 Sur 0 -- -- 82
2019-08-13 06:00:00 14.9 4 Sur 7 Sur 0 -- -- 84
2019-08-13 05:00:00 15.9 0 Calma 6 Sur 0 -- -- 81
2019-08-13 04:00:00 15.4 3 Sur 5 Sur 0 -- -- 81
2019-08-13 03:00:00 16.3 0 Calma 3 Sur 0 -- -- 76
2019-08-13 02:00:00 16.4 0 Calma 3 Sudeste 0 -- -- 76
2019-08-13 01:00:00 16.6 2 Este 6 Sudeste 0 -- -- 75
2019-08-13 00:00:00 16.8 3 Este 5 Este 0 -- -- 76
2019-08-12 23:00:00 16.8 0 Calma 9 Sur 0 -- -- 75
2019-08-12 22:00:00 16.9 3 Sudeste 12 Este 0 -- -- 76
2019-08-12 21:00:00 17.6 3 Sur 11 Sudeste 0 -- -- 73
2019-08-12 20:00:00 18.5 4 Sur 11 Oeste 0 -- -- 74
2019-08-12 19:00:00 18.4 0 Calma 16 Nordeste 0 -- -- 68
2019-08-12 18:00:00 18.3 5 Noroeste 21 Noroeste 0 -- -- 73
2019-08-12 17:00:00 19.1 13 Noroeste 26 Noroeste 0 -- -- 66
2019-08-12 16:00:00 18.9 11 Noroeste 26 Noroeste 0 -- -- 69
2019-08-12 15:00:00 19 14 Noroeste 28 Noroeste 0 -- -- 67
2019-08-12 14:00:00 18.9 14 Noroeste 27 Noroeste 0 -- -- 68
2019-08-12 13:00:00 18.3 18 Oeste 30 Oeste 0 -- -- 82
2019-08-12 12:00:00 16.3 22 Oeste 36 Sudoeste 0 -- -- 87
2019-08-12 11:00:00 15.7 19 Oeste 41 Oeste 0.2 -- -- 90
2019-08-12 10:00:00 16.4 17 Oeste 37 Oeste 0.1 -- -- 88
2019-08-12 09:00:00 15.7 18 Oeste 35 Oeste 0.1 -- -- 88
2019-08-12 08:00:00 14.8 22 Sudoeste 35 Sudoeste 0 -- -- 86
2019-08-12 07:00:00 14.8 22 Sudoeste 33 Sudoeste 0.4 -- -- 87
2019-08-12 06:00:00 15.3 14 Noroeste 35 Noroeste 2 -- -- 91
2019-08-12 05:00:00 15.5 17 Sudoeste 34 Oeste 0 -- -- 88
2019-08-12 04:00:00 15.4 19 Sudoeste 39 Oeste 0.4 -- -- 89
2019-08-12 03:00:00 15.1 17 Noroeste 41 Noroeste 0.6 -- -- 88
2019-08-12 02:00:00 15.5 14 Oeste 42 Noroeste 2.4 -- -- 88
2019-08-12 01:00:00 16.8 15 Noroeste 63 Oeste 0 -- -- 90
2019-08-12 00:00:00 16.8 15 Oeste 49 Noroeste 0 -- -- 86
2019-08-11 23:00:00 15.9 23 Noroeste 48 Noroeste 0.1 -- -- 84
2019-08-11 22:00:00 17.6 17 Oeste 37 Sudoeste 0 -- -- 81
2019-08-11 21:00:00 17.7 18 Oeste 31 Oeste 0 -- -- 73
2019-08-11 20:00:00 18.5 12 Oeste 32 Oeste 0 -- -- 75
2019-08-11 19:00:00 18.8 16 Oeste 34 Oeste 0 -- -- 74
2019-08-11 18:00:00 16.9 26 Oeste 40 Oeste 0 -- -- 82
2019-08-11 17:00:00 17.2 18 Oeste 47 Noroeste 0 -- -- 79
2019-08-11 16:00:00 19.3 25 Noroeste 40 Noroeste 0 -- -- 72
2019-08-11 15:00:00 19.7 18 Noroeste 32 Noroeste 0 -- -- 69
2019-08-11 14:00:00 19.5 13 Noroeste 26 Norte 0 -- -- 73
2019-08-11 13:00:00 19.6 10 Noroeste 23 Noroeste 0 -- -- 73
2019-08-11 12:00:00 19.5 12 Oeste 26 Oeste 0 -- -- 76
2019-08-11 11:00:00 18.4 16 Oeste 32 Oeste 0 -- -- 84
2019-08-11 10:00:00 18 14 Oeste 26 Oeste 0 -- -- 86
2019-08-11 09:00:00 16.6 13 Sudoeste 19 Sudoeste 0 -- -- 90
2019-08-11 08:00:00 16 14 Sudoeste 19 Sudoeste 0 -- -- 91
2019-08-11 07:00:00 15.7 14 Sudoeste 22 Sudoeste 0 -- -- 91
2019-08-11 06:00:00 16 11 Oeste 17 Oeste 0.1 -- -- 91
2019-08-11 05:00:00 16.3 10 Sudoeste 14 Sudoeste 0.1 -- -- 86
2019-08-11 04:00:00 16.6 3 Sur 17 Sudeste 0 -- -- 88
2019-08-11 03:00:00 16.3 11 Sudeste 21 Este 0 -- -- 90
2019-08-11 02:00:00 18.3 8 Sudoeste 12 Sur 0 -- -- 85
2019-08-11 01:00:00 18.4 4 Sudoeste 7 Oeste 0 -- -- 84
2019-08-11 00:00:00 18.6 4 Oeste 7 Oeste 0 -- -- 84
2019-08-10 23:00:00 19.2 2 Sudoeste 7 Norte 0 -- -- 82
2019-08-10 22:00:00 19.3 0 Calma 9 Oeste 0 -- -- 81
2019-08-10 21:00:00 19.5 0 Calma 12 Noroeste 0 -- -- 81
2019-08-10 20:00:00 19.8 4 Noroeste 14 Oeste 0 -- -- 82
2019-08-10 19:00:00 20.3 0 Calma 13 Noroeste 0 -- -- 76
2019-08-10 18:00:00 20.1 4 Norte 18 Norte 0 -- -- 75
2019-08-10 17:00:00 22.4 2 Sur 17 Noroeste 0 -- -- 69
2019-08-10 16:00:00 22.1 2 Sudoeste 18 Noroeste 0 -- -- 68
2019-08-10 15:00:00 21.3 5 Norte 27 Noroeste 0 -- -- 68
2019-08-10 14:00:00 20.3 14 Noroeste 33 Noroeste 0 -- -- 74
2019-08-10 13:00:00 20.4 18 Noroeste 32 Noroeste 0 -- -- 72
2019-08-10 12:00:00 20.4 16 Noroeste 28 Noroeste 0 -- -- 72
2019-08-10 11:00:00 20.3 9 Noroeste 29 Oeste 0 -- -- 72
2019-08-10 10:00:00 20 12 Oeste 28 Noroeste 0 -- -- 72
2019-08-10 09:00:00 19.7 9 Noroeste 32 Oeste 0 -- -- 76
2019-08-10 08:00:00 19.5 17 Oeste 33 Oeste 0 -- -- 73
2019-08-10 07:00:00 19.5 9 Oeste 30 Oeste 0 -- -- 76
2019-08-10 06:00:00 19.4 11 Oeste 35 Noroeste 0 -- -- 75
2019-08-10 05:00:00 19.6 13 Oeste 36 Oeste 0 -- -- 74
2019-08-10 04:00:00 19.7 15 Oeste 42 Oeste 0 -- -- 76
2019-08-10 03:00:00 20 20 Oeste 46 Oeste 0 -- -- 76
2019-08-10 02:00:00 20.3 20 Oeste 42 Oeste 0 -- -- 75
2019-08-10 01:00:00 20.3 13 Oeste 46 Oeste 0 -- -- 76
2019-08-10 00:00:00 20.5 22 Oeste 55 Oeste 0 -- -- 76
2019-08-09 23:00:00 20.7 16 Noroeste 59 Oeste 0 -- -- 76
2019-08-09 22:00:00 20.8 18 Noroeste 53 Oeste 0 -- -- 81
2019-08-09 21:00:00 21.1 25 Oeste 56 Oeste 0 -- -- 76
2019-08-09 20:00:00 21.6 6 Noroeste 27 Noroeste 0 -- -- 73
2019-08-09 19:00:00 21.9 6 Sudeste 28 Sudoeste 0 -- -- 84
2019-08-09 18:00:00 25 14 Sudoeste 35 Sudoeste 0 -- -- 52
2019-08-09 17:00:00 22.7 12 Sudeste 22 Este 0 -- -- 81
2019-08-09 16:00:00 22.9 8 Este 18 Este 0 -- -- 84
2019-08-09 15:00:00 22.7 8 Este 22 Este 0 -- -- 86
2019-08-09 14:00:00 24.8 4 Sudoeste 15 Oeste 0 -- -- 49
2019-08-09 13:00:00 23.5 9 Oeste 24 Sudoeste 0 -- -- 50
2019-08-09 12:00:00 23.7 11 Sudoeste 27 Sudoeste 0 -- -- 48
2019-08-09 11:00:00 22.1 21 Sudoeste 44 Sudoeste 0 -- -- 53
2019-08-09 10:00:00 21.5 18 Sudoeste 35 Sudoeste 0 -- -- 57
2019-08-09 09:00:00 20.5 13 Sudoeste 33 Sudoeste 0 -- -- 87
2019-08-09 08:00:00 20.5 18 Oeste 41 Oeste 0 -- -- 74
2019-08-09 07:00:00 19.7 15 Oeste 24 Oeste 0 -- -- 91
2019-08-09 06:00:00 20.3 11 Sudoeste 20 Noroeste 0 -- -- 93
2019-08-09 05:00:00 20.1 13 Noroeste 23 Noroeste 0 -- -- 94
2019-08-09 04:00:00 20.5 7 Noroeste 19 Noroeste 0 -- -- 94
2019-08-09 03:00:00 20 11 Noroeste 28 Norte 0 -- -- 94
2019-08-09 02:00:00 21.5 2 Nordeste 30 Este 0 -- -- 91
2019-08-09 01:00:00 23.2 8 Sudeste 13 Sudeste 0 -- -- 82
2019-08-09 00:00:00 22.4 9 Sudeste 13 Sudeste 0 -- -- 87
2019-08-08 23:00:00 22.1 4 Este 15 Noroeste 0 -- -- 90
2019-08-08 22:00:00 22.3 2 Oeste 9 Este 0 -- -- 90
2019-08-08 21:00:00 22.3 8 Noroeste 14 Sudoeste 0 -- -- 90
2019-08-08 20:00:00 24.9 3 Sudoeste 12 Este 0 -- -- 79
2019-08-08 19:00:00 24.4 11 Este 19 Sudeste 0 -- -- 76
2019-08-08 18:00:00 24.2 12 Sudeste 16 Este 0 -- -- 75
2019-08-08 17:00:00 24.6 10 Sudeste 29 Sudeste 0 -- -- 73
2019-08-08 16:00:00 24.5 20 Sudeste 31 Sudeste 0 -- -- 73
2019-08-08 15:00:00 25.7 23 Sudeste 31 Este 0 -- -- 69
2019-08-08 14:00:00 25.3 18 Sudeste -- -- -- -- -- 67
2019-08-08 13:00:00 -- -- -- -- -- -- -- -- --
2019-08-08 12:00:00 -- -- -- -- -- -- -- -- --
2019-08-08 11:00:00 -- -- -- -- -- -- -- -- --
2019-08-08 10:00:00 -- -- -- -- -- -- -- -- --
2019-08-08 09:00:00 -- -- -- -- -- -- -- -- --
2019-08-08 08:00:00 -- -- -- -- -- -- -- -- --
2019-08-08 07:00:00 -- -- -- -- -- -- -- -- --
2019-08-08 06:00:00 -- -- -- -- -- -- -- -- --
2019-08-08 05:00:00 -- -- -- -- -- -- -- -- --
2019-08-08 04:00:00 -- -- -- -- -- -- -- -- --
2019-08-08 03:00:00 -- -- -- -- -- -- -- -- --
2019-08-08 02:00:00 -- -- -- -- -- -- -- -- --
2019-08-08 01:00:00 -- -- -- -- -- -- -- -- --
2019-08-08 00:00:00 -- -- -- -- -- -- -- -- --
2019-08-07 23:00:00 -- -- -- -- -- -- -- -- --
2019-08-07 22:00:00 -- -- -- -- -- -- -- -- --
2019-08-07 21:00:00 -- -- -- -- -- -- -- -- --
2019-08-07 20:00:00 -- -- -- -- -- -- -- -- --
2019-08-07 19:00:00 -- -- -- -- -- -- -- -- --
2019-08-07 18:00:00 -- -- -- -- -- -- -- -- --
2019-08-07 17:00:00 -- -- -- -- -- -- -- -- --
2019-08-07 16:00:00 -- -- -- -- -- -- -- -- --
2019-08-07 15:00:00 -- -- -- -- -- -- -- -- --
2019-08-07 14:00:00 -- -- -- -- -- -- -- -- --
2019-08-07 13:00:00 -- -- -- -- -- -- -- -- --
2019-08-07 12:00:00 -- -- -- -- -- -- -- -- --
2019-08-07 11:00:00 -- -- -- -- -- -- -- -- --
2019-08-07 10:00:00 -- -- -- -- -- -- -- -- --
2019-08-07 09:00:00 -- -- -- -- -- -- -- -- --
2019-08-07 08:00:00 -- -- -- -- -- -- -- -- --
2019-08-07 07:00:00 -- -- -- -- -- -- -- -- --
2019-08-07 06:00:00 -- -- -- -- -- -- -- -- --
2019-08-07 05:00:00 -- -- -- -- -- -- -- -- --
2019-08-07 04:00:00 -- -- -- -- -- -- -- -- --
2019-08-07 03:00:00 -- -- -- -- -- -- -- -- --
2019-08-07 02:00:00 -- -- -- -- -- -- -- -- --
2019-08-07 01:00:00 -- -- -- -- -- -- -- -- --
2019-08-07 00:00:00 -- -- -- -- -- -- -- -- --
2019-08-06 23:00:00 -- -- -- -- -- -- -- -- --
2019-08-06 22:00:00 -- -- -- -- -- -- -- -- --
2019-08-06 21:00:00 -- -- -- -- -- -- -- -- --
2019-08-06 20:00:00 -- -- -- -- -- -- -- -- --
2019-08-06 19:00:00 -- -- -- -- -- -- -- -- --
2019-08-06 18:00:00 -- -- -- -- -- -- -- -- --
2019-08-06 17:00:00 -- -- -- -- -- -- -- -- --
2019-08-06 16:00:00 -- -- -- -- -- -- -- -- --
2019-08-06 15:00:00 -- -- -- -- -- -- -- -- --
2019-08-06 14:00:00 -- -- -- -- -- -- -- -- --
2019-08-06 13:00:00 -- -- -- -- -- -- -- -- --
2019-08-06 12:00:00 -- -- -- -- -- -- -- -- --
2019-08-06 11:00:00 -- -- -- -- -- -- -- -- --
2019-08-06 10:00:00 -- -- -- -- -- -- -- -- --
2019-08-06 09:00:00 -- -- -- -- -- -- -- -- --
2019-08-06 08:00:00 -- -- -- -- -- -- -- -- --
2019-08-06 07:00:00 -- -- -- -- -- -- -- -- --
2019-08-06 06:00:00 -- -- -- -- -- -- -- -- --
2019-08-06 05:00:00 -- -- -- -- -- -- -- -- --
2019-08-06 04:00:00 -- -- -- -- -- -- -- -- --
2019-08-06 03:00:00 -- -- -- -- -- -- -- -- --
2019-08-06 02:00:00 -- -- -- -- -- -- -- -- --
2019-08-06 01:00:00 -- -- -- -- -- -- -- -- --
2019-08-06 00:00:00 -- -- -- -- -- -- -- -- --
2019-08-05 23:00:00 -- -- -- -- -- -- -- -- --
2019-08-05 22:00:00 -- -- -- -- -- -- -- -- --
2019-08-05 21:00:00 -- -- -- -- -- -- -- -- --
2019-08-05 20:00:00 -- -- -- -- -- -- -- -- --
2019-08-05 19:00:00 -- -- -- -- -- -- -- -- --
2019-08-05 18:00:00 -- -- -- -- -- -- -- -- --
2019-08-05 17:00:00 -- -- -- -- -- -- -- -- --
2019-08-05 16:00:00 -- -- -- -- -- -- -- -- --
2019-08-05 15:00:00 -- -- -- -- -- -- -- -- --
2019-08-05 14:00:00 -- -- -- -- -- -- -- -- --
2019-08-05 13:00:00 -- -- -- -- -- -- -- -- --
2019-08-05 12:00:00 -- -- -- -- -- -- -- -- --
2019-08-05 11:00:00 -- -- -- -- -- -- -- -- --
2019-08-05 10:00:00 -- -- -- -- -- -- -- -- --
2019-08-05 09:00:00 -- -- -- -- -- -- -- -- --
2019-08-05 08:00:00 -- -- -- -- -- -- -- -- --
2019-08-05 07:00:00 -- -- -- -- -- -- -- -- --
2019-08-05 06:00:00 -- -- -- -- -- -- -- -- --
2019-08-05 05:00:00 -- -- -- -- -- -- -- -- --
2019-08-05 04:00:00 -- -- -- -- -- -- -- -- --
2019-08-05 03:00:00 -- -- -- -- -- -- -- -- --
2019-08-05 02:00:00 -- -- -- -- -- -- -- -- --
2019-08-05 01:00:00 -- -- -- -- -- -- -- -- --
2019-08-05 00:00:00 -- -- -- -- -- -- -- -- --
2019-08-04 23:00:00 -- -- -- -- -- -- -- -- --
2019-08-04 22:00:00 -- -- -- -- -- -- -- -- --
2019-08-04 21:00:00 -- -- -- -- -- -- -- -- --
2019-08-04 20:00:00 -- -- -- -- -- -- -- -- --
2019-08-04 19:00:00 -- -- -- -- -- -- -- -- --
2019-08-04 18:00:00 21.2 3 Noroeste 14 Norte 0 -- -- 86
2019-08-04 17:00:00 21.3 4 Norte 8 Este 0 -- -- 86
2019-08-04 16:00:00 20.6 5 Norte 7 Noroeste 0 -- -- 86
2019-08-04 15:00:00 20.5 3 Noroeste 10 Oeste 0 -- -- 88
2019-08-04 14:00:00 20.8 4 Norte 10 Norte 0 -- -- 90
2019-08-04 13:00:00 20.1 7 Noroeste 12 Noroeste 0 -- -- 91
2019-08-04 12:00:00 19.7 4 Noroeste 9 Noroeste 0 -- -- 91
2019-08-04 11:00:00 19.7 2 Noroeste 10 Noroeste 0 -- -- 92
2019-08-04 10:00:00 20 6 Oeste 10 Oeste 0 -- -- 94
2019-08-04 09:00:00 19.4 0 Calma 10 Sudoeste 0 -- -- 94
2019-08-04 08:00:00 18.8 8 Sudoeste 11 Sudoeste 0 -- -- 93
2019-08-04 07:00:00 18.6 8 Sudoeste 12 Oeste 0 -- -- 94
2019-08-04 06:00:00 18.5 7 Sudoeste 10 Sudoeste 0 -- -- 93
2019-08-04 05:00:00 18.6 8 Sudoeste 10 Oeste 0 -- -- 94
2019-08-04 04:00:00 18.1 6 Sudoeste 9 Sudoeste 0 -- -- 93
2019-08-04 03:00:00 18.7 8 Sudoeste 9 Sudoeste 0 -- -- 92
2019-08-04 02:00:00 19.4 3 Sudeste 5 Sudoeste 0 -- -- 91
2019-08-04 01:00:00 19.6 0 Calma 6 Este 0 -- -- 91
2019-08-04 00:00:00 19.5 4 Sudeste 7 Sudeste 0 -- -- 91
2019-08-03 23:00:00 19.6 4 Sudeste 6 Este 0 -- -- 91
2019-08-03 22:00:00 19.5 4 Este 9 Este 0 -- -- 91
2019-08-03 21:00:00 20.2 7 Este 12 Este 0 -- -- 90
2019-08-03 20:00:00 21 9 Este 14 Sudeste 0 -- -- 87
2019-08-03 19:00:00 21 6 Este 18 Este 0 -- -- 87
2019-08-03 18:00:00 21.1 10 Este 16 Sudeste 0 -- -- 87
2019-08-03 17:00:00 21.5 6 Este 16 Sudeste 0 -- -- 86
2019-08-03 16:00:00 22.3 10 Este 16 Este 0 -- -- 81
2019-08-03 15:00:00 22.3 6 Este 15 Este 0 -- -- 79
2019-08-03 14:00:00 21.1 6 Norte 12 Noroeste 0 -- -- 88
2019-08-03 13:00:00 20.8 5 Norte 14 Noroeste 0 -- -- 90
2019-08-03 12:00:00 20.7 8 Noroeste 15 Noroeste 0 -- -- 90
2019-08-03 11:00:00 20.1 7 Oeste 12 Oeste 0 -- -- 90
2019-08-03 10:00:00 19.7 0 Calma 10 Este 0 -- -- 92
2019-08-03 09:00:00 19.1 6 Sudoeste 13 Sudoeste 0 -- -- 92
2019-08-03 08:00:00 19 4 Sudoeste 12 Sudoeste 0 -- -- 92
2019-08-03 07:00:00 19.3 8 Sudeste 18 Este 0 -- -- 92
2019-08-03 06:00:00 19.4 14 Sudeste 23 Este 0 -- -- 92
2019-08-03 05:00:00 19.3 10 Este 26 Este 0 -- -- 92
2019-08-03 04:00:00 19.5 19 Sudeste 28 Sudeste 0 -- -- 92
2019-08-03 03:00:00 19.5 20 Este 27 Este 0 -- -- 92
2019-08-03 02:00:00 19.5 18 Este 30 Este 0 -- -- 92
2019-08-03 01:00:00 19.6 20 Este 31 Este 0 -- -- 92
2019-08-03 00:00:00 19.6 22 Este 33 Este 0 -- -- 92
2019-08-02 23:00:00 19.7 24 Este 36 Este 0 -- -- 91
2019-08-02 22:00:00 19.8 23 Este 33 Este 0 -- -- 91
2019-08-02 21:00:00 20 23 Este 35 Este 0 -- -- 90
2019-08-02 20:00:00 20.8 25 Este 36 Este 0 -- -- 88
2019-08-02 19:00:00 21.1 24 Este 38 Este 0 -- -- 87
2019-08-02 18:00:00 21.4 23 Este 37 Este 0 -- -- 82
2019-08-02 17:00:00 21.1 22 Este 36 Este 0 -- -- 85
2019-08-02 16:00:00 21.8 21 Este 34 Este 0 -- -- 83
2019-08-02 15:00:00 21.1 19 Este 33 Este 0 -- -- 84
2019-08-02 14:00:00 21.6 21 Este 32 Este 0 -- -- 81
2019-08-02 13:00:00 21.9 19 Este 28 Nordeste 0 -- -- 82
2019-08-02 12:00:00 21.9 15 Este 22 Sudeste 0 -- -- 83
2019-08-02 11:00:00 20.7 13 Este 21 Este 0 -- -- 84
2019-08-02 10:00:00 20.1 14 Sudeste 21 Sudeste 0 -- -- 86
2019-08-02 09:00:00 18.4 12 Sudeste 17 Sudeste 0 -- -- 91
2019-08-02 08:00:00 17.7 10 Este 15 Este 0 -- -- 92
2019-08-02 07:00:00 17 12 Sudeste 19 Sudeste 0 -- -- 92
2019-08-02 06:00:00 17.2 13 Sudeste 19 Sudeste 0 -- -- 92
2019-08-02 05:00:00 17.4 13 Sudeste 17 Sudeste 0 -- -- 92
2019-08-02 04:00:00 17.5 9 Sudeste 17 Sudeste 0 -- -- 92
2019-08-02 03:00:00 17.9 11 Este 22 Este 0 -- -- 91
2019-08-02 02:00:00 18.7 8 Este 24 Este 0 -- -- 91
2019-08-02 01:00:00 19.3 13 Este 23 Este 0 -- -- 91
2019-08-02 00:00:00 19.1 14 Este 25 Sudeste 0 -- -- 91
2019-08-01 23:00:00 19.5 16 Sudeste 28 Este 0 -- -- 91
2019-08-01 22:00:00 19.5 15 Este 30 Este 0 -- -- 91
2019-08-01 21:00:00 19.5 16 Sudeste 30 Este 0 -- -- 91
2019-08-01 20:00:00 19.6 16 Este 30 Este 0 -- -- 91
2019-08-01 19:00:00 19.7 15 Sudeste 27 Este 0 -- -- 88
2019-08-01 18:00:00 20.2 15 Sudeste 26 Sudeste 0 -- -- 86
2019-08-01 17:00:00 20 11 Sudeste 24 Este 0 -- -- 87
2019-08-01 16:00:00 19.6 7 Nordeste 14 Nordeste 0 -- -- 92
2019-08-01 15:00:00 18.9 4 Nordeste 11 Este 0.1 -- -- 94
2019-08-01 14:00:00 18.6 8 Sudeste 12 Este 0.1 -- -- 94
2019-08-01 13:00:00 17.9 8 Este 23 Este 0.1 -- -- 94
2019-08-01 12:00:00 17.7 8 Sudeste 29 Sudeste 0.2 -- -- 94
2019-08-01 11:00:00 17.4 18 Este 32 Este 0.5 -- -- 94
2019-08-01 10:00:00 17.4 14 Este 32 Este 0.1 -- -- 94
2019-08-01 09:00:00 17.2 21 Este 35 Este 0.1 -- -- 94
2019-08-01 08:00:00 17.7 21 Este 35 Este 0 -- -- 92
2019-08-01 07:00:00 17.8 15 Este 36 Este 0 -- -- 91
2019-08-01 06:00:00 19 21 Sudeste 34 Este 0 -- -- 86
2019-08-01 05:00:00 18.3 17 Este 38 Este 0 -- -- 88
2019-08-01 04:00:00 19.2 19 Sudeste 37 Este 0 -- -- 83
2019-08-01 03:00:00 19.1 22 Sudeste 36 Este 0 -- -- 84
2019-08-01 02:00:00 19.2 22 Este 37 Este 0 -- -- 84
2019-08-01 01:00:00 19.1 21 Este 37 Este 0 -- -- 85
2019-08-01 00:00:00 19.1 22 Este 38 Este 0 -- -- 83
2019-07-31 23:00:00 19 20 Este 35 Este 0 -- -- 82
2019-07-31 22:00:00 18.9 21 Este 36 Este 0 -- -- 81
2019-07-31 21:00:00 19.1 23 Este 40 Este 0 -- -- 81
2019-07-31 20:00:00 19.2 22 Este 36 Sudeste 0 -- -- 81
2019-07-31 19:00:00 19.5 21 Este 33 Este 0 -- -- 79
2019-07-31 18:00:00 19.6 19 Este 33 Este 0 -- -- 75
2019-07-31 17:00:00 19.4 18 Sudeste 36 Este 0 -- -- 76
2019-07-31 16:00:00 19.6 19 Sudeste 36 Este 0 -- -- 76
2019-07-31 15:00:00 19.6 18 Este 33 Este 0 -- -- 74
2019-07-31 14:00:00 19.7 19 Este 32 Este 0 -- -- 72
2019-07-31 13:00:00 20.1 18 Este 30 Sudeste 0 -- -- 76
2019-07-31 12:00:00 19.6 4 Este 15 Este 0 -- -- 81
2019-07-31 11:00:00 19.3 3 Nordeste 9 Este 0 -- -- 76
2019-07-31 10:00:00 19.1 3 Este 10 Este 0 -- -- 76
2019-07-31 09:00:00 18.2 5 Este 7 Este 0 -- -- 76
2019-07-31 08:00:00 15.6 3 Sur 6 Sudeste 0 -- -- 82
2019-07-31 07:00:00 15.4 5 Sudeste 8 Sudeste 0 -- -- 82
2019-07-31 06:00:00 15.6 4 Sudeste 6 Sudeste 0 -- -- 82
2019-07-31 05:00:00 15.7 2 Este 5 Sudeste 0 -- -- 81
2019-07-31 04:00:00 15.8 3 Sudeste 4 Sudeste 0 -- -- 79
2019-07-31 03:00:00 16.2 0 Calma 3 Sudeste 0 -- -- 76
2019-07-31 02:00:00 16.1 0 Calma 4 Sur 0 -- -- 76
2019-07-31 01:00:00 16.6 0 Calma 4 Noroeste 0 -- -- 76
2019-07-31 00:00:00 16.9 0 Calma 7 Noroeste 0 -- -- 75
2019-07-30 23:00:00 17 4 Noroeste 12 Noroeste 0 -- -- 73
2019-07-30 22:00:00 17.3 5 Noroeste 12 Noroeste 0 -- -- 69
2019-07-30 21:00:00 18.2 4 Noroeste 16 Noroeste 0 -- -- 71
2019-07-30 20:00:00 18.1 6 Noroeste 23 Noroeste 0 -- -- 72
2019-07-30 19:00:00 18.7 13 Noroeste 25 Norte 0 -- -- 66
2019-07-30 18:00:00 19.3 15 Noroeste 28 Noroeste 0 -- -- 67
2019-07-30 17:00:00 19.2 18 Noroeste 33 Noroeste 0 -- -- 66
2019-07-30 16:00:00 19.3 18 Noroeste 35 Noroeste 0 -- -- 67
2019-07-30 15:00:00 19.3 19 Noroeste 32 Noroeste 0 -- -- 68
2019-07-30 14:00:00 18.8 15 Noroeste 35 Oeste 0 -- -- 75
2019-07-30 13:00:00 19.3 15 Oeste 37 Oeste 0 -- -- 72
2019-07-30 12:00:00 18.2 21 Oeste 36 Oeste 0 -- -- 69
2019-07-30 11:00:00 17.3 19 Oeste 42 Oeste 0 -- -- 69
2019-07-30 10:00:00 17.6 22 Oeste 36 Oeste 0 -- -- 67
2019-07-30 09:00:00 17 19 Sudoeste 51 Oeste 0 -- -- 69
2019-07-30 08:00:00 17 17 Oeste 37 Oeste 0 -- -- 71
2019-07-30 07:00:00 16.8 21 Oeste 46 Oeste 0 -- -- 71
2019-07-30 06:00:00 17.1 26 Oeste 59 Oeste 0 -- -- 71
2019-07-30 05:00:00 17.1 34 Oeste 47 Oeste 0 -- -- 69
2019-07-30 04:00:00 17.1 27 Oeste 49 Oeste 0 -- -- 71
2019-07-30 03:00:00 17 34 Oeste 64 Oeste 0 -- -- 70
2019-07-30 02:00:00 17.5 32 Oeste 57 Oeste 0 -- -- 68
2019-07-30 01:00:00 17.7 29 Oeste 58 Oeste 0 -- -- 71
2019-07-30 00:00:00 18 30 Oeste 66 Oeste 0 -- -- 73
2019-07-29 23:00:00 18.2 20 Noroeste 60 Noroeste 0 -- -- 73
2019-07-29 22:00:00 19.1 29 Noroeste 67 Noroeste 0 -- -- 65
2019-07-29 21:00:00 18.9 23 Noroeste 63 Noroeste 0 -- -- 73
2019-07-29 20:00:00 19.3 29 Noroeste 65 Noroeste 0 -- -- 71
2019-07-29 19:00:00 19.2 35 Noroeste 70 Noroeste 0 -- -- 72
2019-07-29 18:00:00 19.3 33 Noroeste 70 Noroeste 0 -- -- 73
2019-07-29 17:00:00 19.6 28 Noroeste 67 Noroeste 0 -- -- 68
2019-07-29 16:00:00 19.7 32 Noroeste 65 Noroeste 0 -- -- 72
2019-07-29 15:00:00 20.5 21 Noroeste 54 Norte 0 -- -- 67
2019-07-29 14:00:00 20.4 14 Noroeste 41 Noroeste 0 -- -- 67
2019-07-29 13:00:00 20.9 21 Oeste 49 Oeste 0 -- -- 59
2019-07-29 12:00:00 20.1 18 Oeste 52 Noroeste 0 -- -- 69
2019-07-29 11:00:00 19.8 20 Oeste 55 Noroeste 0 -- -- 72
2019-07-29 10:00:00 19.4 21 Oeste 57 Oeste 0 -- -- 71
2019-07-29 09:00:00 19.6 21 Oeste 46 Oeste 0 -- -- 75
2019-07-29 08:00:00 19.4 13 Oeste 34 Oeste 0 -- -- 79
2019-07-29 07:00:00 17.7 18 Sudoeste 26 Sudoeste 0 -- -- 85
2019-07-29 06:00:00 17.1 9 Sudoeste 12 Sudoeste 0 -- -- 86
2019-07-29 05:00:00 18.8 6 Sudoeste 10 Sudoeste 0 -- -- 83
2019-07-29 04:00:00 18.4 2 Oeste 9 Sudoeste 0 -- -- 82
2019-07-29 03:00:00 18.3 6 Sur 18 Oeste 0 -- -- 89
2019-07-29 02:00:00 18.6 15 Oeste 20 Oeste 0 -- -- 86
2019-07-29 01:00:00 19.2 8 Sudoeste 22 Este 0 -- -- 82
2019-07-29 00:00:00 18.9 19 Sudeste 36 Sudeste 0 -- -- 84
2019-07-28 23:00:00 19.3 27 Sudeste 42 Sudeste 0 -- -- 86
2019-07-28 22:00:00 19.4 27 Este 45 Este 0 -- -- 86
2019-07-28 21:00:00 19.5 28 Este 45 Este 0 -- -- 83
2019-07-28 20:00:00 19.9 26 Este 38 Este 0 -- -- 79
2019-07-28 19:00:00 20.3 26 Este 39 Este 0 -- -- 76
2019-07-28 18:00:00 21.1 23 Este 32 Este 0 -- -- 74
2019-07-28 17:00:00 21.2 21 Este 28 Este 0 -- -- 73
2019-07-28 16:00:00 21 18 Este 26 Este 0 -- -- 76
2019-07-28 15:00:00 20.1 15 Sudeste 25 Este 0 -- -- 76
2019-07-28 14:00:00 19.7 5 Este 20 Sudeste 0 -- -- 81
2019-07-28 13:00:00 20.8 4 Sudeste 10 Norte 0 -- -- 76
2019-07-28 12:00:00 19.5 3 Norte 8 Noroeste 0 -- -- 79
2019-07-28 11:00:00 18.8 4 Oeste 12 Sudoeste 0 -- -- 79
2019-07-28 10:00:00 17.9 10 Sudoeste 14 Sudoeste 0 -- -- 81
2019-07-28 09:00:00 16.5 12 Sudoeste 18 Sudoeste 0 -- -- 84
2019-07-28 08:00:00 15.4 14 Sudoeste 16 Sudoeste 0 -- -- 88
2019-07-28 07:00:00 15.4 11 Sudoeste 18 Sudoeste 0 -- -- 86
2019-07-28 06:00:00 14.7 13 Sudoeste 16 Sudoeste 0 -- -- 88
2019-07-28 05:00:00 15.3 13 Sudoeste 17 Sudoeste 0 -- -- 87
2019-07-28 04:00:00 15.7 14 Sudoeste 20 Sudoeste 0 -- -- 86
2019-07-28 03:00:00 15.6 15 Sudoeste 18 Sudoeste 0 -- -- 88
2019-07-28 02:00:00 15.4 13 Sudoeste 21 Sudoeste 0 -- -- 91
2019-07-28 01:00:00 15.7 14 Sudoeste 18 Sudoeste 0 -- -- 91
2019-07-28 00:00:00 15.8 13 Sudoeste 21 Sudoeste 0 -- -- 92
2019-07-27 23:00:00 16.5 12 Sudoeste 18 Sudoeste 0 -- -- 91
2019-07-26 12:00:00 19.4 18 Oeste 28 Oeste 0 -- -- 84
2019-07-26 11:00:00 18.7 18 Oeste 33 Oeste 0 -- -- 86
2019-07-26 10:00:00 18.1 15 Oeste 28 Oeste 0 -- -- 84
2019-07-26 09:00:00 17.7 18 Oeste 26 Oeste 0 -- -- 86
2019-07-26 08:00:00 17.4 10 Sudoeste 21 Oeste 0 -- -- 88
2019-07-26 07:00:00 17.7 11 Oeste 28 Oeste 0 -- -- 86
2019-07-26 06:00:00 17.9 14 Oeste 22 Noroeste 0.1 -- -- 92
2019-07-26 05:00:00 17.6 11 Sudoeste 19 Noroeste 0.1 -- -- 92
2019-07-26 04:00:00 17.9 10 Noroeste 23 Noroeste 0.3 -- -- 92
2019-07-26 03:00:00 17.8 10 Oeste 16 Oeste 0.6 -- -- 94
2019-07-26 02:00:00 18 7 Oeste 10 Noroeste 0.1 -- -- 94
2019-07-26 01:00:00 18.3 3 Oeste 12 Oeste 1.5 -- -- 94
2019-07-26 00:00:00 18.1 8 Oeste 22 Noroeste 3.9 -- -- 94
2019-07-25 23:00:00 19.3 0 Calma 8 Noroeste 0.4 -- -- 92
2019-07-25 22:00:00 19.2 0 Calma 10 Noroeste 0.3 -- -- 91
2019-07-25 21:00:00 19.3 2 Sur 23 Noroeste 0 -- -- 90
2019-07-25 20:00:00 19.5 12 Noroeste 24 Noroeste 0 -- -- 86
2019-07-25 19:00:00 19.5 16 Noroeste 30 Noroeste 0.3 -- -- 87
2019-07-25 18:00:00 19.5 18 Noroeste 31 Noroeste 0.2 -- -- 88
2019-07-25 17:00:00 19.6 19 Noroeste 36 Noroeste 1.2 -- -- 91
2019-07-25 16:00:00 20.1 19 Noroeste 35 Noroeste 0 -- -- 90
2019-07-25 15:00:00 22.8 6 Este 13 Este 0 -- -- 81
2019-07-25 14:00:00 22 8 Este 14 Nordeste 0 -- -- 84
2019-07-25 13:00:00 21.7 5 Este 13 Este 0 -- -- 83
2019-07-25 12:00:00 21.2 4 Este 8 Este 0 -- -- 94
2019-07-25 11:00:00 20.4 4 Noroeste 8 Noroeste 0 -- -- 95
2019-07-25 10:00:00 19.7 5 Oeste 9 Sudoeste 0 -- -- 95
2019-07-25 09:00:00 20.1 0 Calma 9 Sudeste 0 -- -- 95
2019-07-25 08:00:00 19.5 0 Calma 9 Sudeste 0 -- -- 95
2019-07-25 07:00:00 19.5 8 Sudeste 15 Sudeste 0 -- -- 95
2019-07-25 06:00:00 19.7 12 Sudeste 15 Sudeste 0 -- -- 94
2019-07-25 05:00:00 19.8 2 Este 6 Sudeste 0 -- -- 94
2019-07-25 04:00:00 19.6 3 Este 7 Este 0 -- -- 94
2019-07-25 03:00:00 19.8 3 Este 6 Este 0 -- -- 94
2019-07-25 02:00:00 20 4 Oeste 11 Oeste 0 -- -- 94
2019-07-25 01:00:00 20.1 7 Oeste 15 Sudoeste 0 -- -- 94
2019-07-25 00:00:00 20 9 Sudoeste 13 Sudoeste 0 -- -- 93
2019-07-24 23:00:00 19.8 10 Sudoeste 12 Sudoeste 0 -- -- 92
2019-07-24 22:00:00 21.4 0 Calma 5 Sudoeste 0 -- -- 92
2019-07-24 21:00:00 21.6 5 Este 14 Este 0 -- -- 92
2019-07-24 20:00:00 21.5 6 Este 21 Este 0 -- -- 92
2019-07-24 19:00:00 21.9 12 Este 19 Este 0 -- -- 91
2019-07-24 18:00:00 22.3 13 Este 24 Este 0 -- -- 88
2019-07-24 17:00:00 23.2 13 Este 24 Este 0 -- -- 85
2019-07-24 16:00:00 22.6 15 Este 29 Este 0 -- -- 85
2019-07-24 15:00:00 22 16 Este 32 Este 0 -- -- 84
2019-07-24 14:00:00 23.4 18 Este 32 Este 0 -- -- 79
2019-07-24 13:00:00 23.3 20 Este 24 Este 0 -- -- 79
2019-07-24 12:00:00 22.3 16 Este 19 Este 0 -- -- 83
2019-07-24 11:00:00 22.3 12 Este 20 Sudeste 0 -- -- 76
2019-07-24 10:00:00 20.7 12 Sudeste 17 Este 0 -- -- 87
2019-07-24 09:00:00 20.4 7 Sudeste 20 Sudeste 0 -- -- 91
2019-07-24 08:00:00 19.3 8 Sudeste 12 Sudeste 0 -- -- 94
2019-07-24 07:00:00 19.1 2 Este 6 Sudeste 0 -- -- 94
2019-07-24 06:00:00 19.2 3 Sudeste 10 Sudoeste 0 -- -- 94
2019-07-24 05:00:00 18.2 9 Sudoeste 14 Sudoeste 0 -- -- 93
2019-07-24 04:00:00 17.7 9 Sudoeste 12 Sudoeste 0 -- -- 92
2019-07-24 03:00:00 19.2 6 Noroeste 14 Noroeste 0 -- -- 92
2019-07-24 02:00:00 19.1 4 Noroeste 7 Oeste 0 -- -- 91
2019-07-24 01:00:00 19.5 3 Norte 6 Sudeste 0 -- -- 90
2019-07-24 00:00:00 19.7 3 Este 10 Este 0 -- -- 91
2019-07-23 23:00:00 19.6 6 Este 10 Este 0 -- -- 88
2019-07-23 22:00:00 19.7 10 Sudoeste 18 Oeste 0 -- -- 88
2019-07-23 21:00:00 19.9 12 Sudoeste 28 Oeste 0 -- -- 88
2019-07-23 20:00:00 20.2 21 Oeste 37 Oeste 0 -- -- 90
2019-07-23 19:00:00 19.9 26 Oeste 35 Oeste 0 -- -- 94
2019-07-23 18:00:00 19.6 24 Oeste 36 Oeste 0 -- -- 94
2019-07-23 17:00:00 19.7 19 Oeste -- -- 0 -- -- 93
2019-07-23 16:00:00 21.1 19 Oeste 24 Oeste 0 -- -- 91
2019-07-23 15:00:00 21 19 Oeste 29 Oeste 0 -- -- 92
2019-07-23 14:00:00 20.3 19 Oeste 28 Oeste 0 -- -- 91
2019-07-23 13:00:00 21.1 13 Oeste 21 Oeste 0 -- -- 90
2019-07-23 12:00:00 21.4 8 Oeste 12 Noroeste 0 -- -- 90
2019-07-23 11:00:00 20.8 5 Noroeste 22 Noroeste 0 -- -- 94
2019-07-23 10:00:00 19.9 14 Oeste 32 Oeste 0 -- -- 94
2019-07-23 09:00:00 20.5 3 Sudeste 8 Sudeste 0 -- -- 94
2019-07-23 08:00:00 20.1 0 Calma 5 Sudoeste 0 -- -- 94
2019-07-23 07:00:00 20.1 3 Sur 10 Sudeste 0 -- -- 94
2019-07-23 06:00:00 20.2 0 Calma 12 Sudoeste 0 -- -- 94
2019-07-23 05:00:00 20 2 Sudeste 9 Sudoeste 0 -- -- 94
2019-07-23 04:00:00 20.3 3 Sur 9 Sudeste 0 -- -- 94
2019-07-23 03:00:00 20.4 5 Sudeste 8 Sudeste 0 -- -- 94
2019-07-23 02:00:00 20.2 0 Calma 12 Este 0 -- -- 94
2019-07-23 01:00:00 20.4 2 Norte 18 Este 0 -- -- 94
2019-07-23 00:00:00 20.2 9 Este 19 Este 0 -- -- 94
2019-07-22 23:00:00 20.2 8 Este 33 Sudeste 0 -- -- 94
2019-07-22 22:00:00 20.7 14 Sudeste 28 Sudeste 0 -- -- 94
2019-07-22 21:00:00 20.6 7 Este 21 Este 0 -- -- 94
2019-07-22 20:00:00 20.7 10 Este 24 Este 0 -- -- 92
2019-07-22 19:00:00 21 14 Sudeste 24 Este 0 -- -- 92
2019-07-22 18:00:00 21.1 9 Este 27 Este 0 -- -- 91
2019-07-22 17:00:00 21.2 14 Este 26 Este 0 -- -- 91
2019-07-22 16:00:00 21.1 15 Este 33 Este 0 -- -- 91
2019-07-22 15:00:00 21.1 14 Este 29 Este 0 -- -- 92
2019-07-22 14:00:00 21.2 14 Este 30 Este 0 -- -- 92
2019-07-22 13:00:00 20.7 18 Este 26 Este 0 -- -- 92
2019-07-22 12:00:00 20.6 16 Este 30 Este 0 -- -- 94
2019-07-22 11:00:00 20 19 Este 32 Este 0 -- -- 94
2019-07-22 10:00:00 19.8 19 Este 35 Este 0 -- -- 94
2019-07-22 09:00:00 19.9 21 Este 33 Este 0 -- -- 94
2019-07-22 08:00:00 19.8 20 Este 29 Este 0 -- -- 94
2019-07-22 07:00:00 19.7 20 Este 32 Este 0 -- -- 94
2019-07-22 06:00:00 19.9 17 Este 29 Este 0 -- -- 93
2019-07-22 05:00:00 20.3 17 Este 35 Este 0 -- -- 92
2019-07-22 04:00:00 20.1 13 Este 26 Este 0 -- -- 94
2019-07-22 03:00:00 20.3 17 Este 25 Este 0 -- -- 92
2019-07-22 02:00:00 20.3 17 Este 26 Este 0 -- -- 92
2019-07-22 01:00:00 20.4 18 Este 30 Este 0 -- -- 92
2019-07-22 00:00:00 20.6 16 Este 30 Este 0 -- -- 92
2019-07-21 23:00:00 20.4 14 Este 24 Este 0 -- -- 92
2019-07-21 22:00:00 20.3 15 Este 23 Este 0 -- -- 91
2019-07-21 21:00:00 20.5 14 Este 27 Este 0 -- -- 91
2019-07-21 20:00:00 21.2 13 Sudeste 23 Este 0 -- -- 88
2019-07-21 19:00:00 21.4 11 Este 22 Sudeste 0 -- -- 89
2019-07-21 18:00:00 21.2 13 Sudeste 21 Sudeste 0 -- -- 90
2019-07-21 17:00:00 20.8 14 Este 25 Este 0 -- -- 88
2019-07-21 16:00:00 20.9 10 Este 24 Sudeste 0 -- -- 90
2019-07-21 15:00:00 20.5 12 Sudeste 23 Sudeste 0 -- -- 92
2019-07-21 14:00:00 19.7 14 Este 27 Este 0.2 -- -- 94
2019-07-21 13:00:00 19.4 8 Este 22 Este 0.1 -- -- 95
2019-07-21 12:00:00 19.1 5 Este 20 Este 0.2 -- -- 95
2019-07-21 11:00:00 18.5 9 Sudeste 23 Este 0.2 -- -- 95
2019-07-21 10:00:00 19.3 8 Este 26 Sudeste 0.1 -- -- 95
2019-07-21 09:00:00 18.9 10 Sudeste 22 Este 0.9 -- -- 94
2019-07-21 08:00:00 19.2 0 Calma 8 Norte 1.4 -- -- 92
2019-07-21 07:00:00 19.3 5 Noroeste 9 Noroeste 0 -- -- 91
2019-07-21 06:00:00 18.9 0 Calma 5 Oeste 0 -- -- 90
2019-07-21 05:00:00 19.3 0 Calma 5 Sur 0 -- -- 90
2019-07-21 04:00:00 19.2 2 Sur 7 Oeste 0 -- -- 90
2019-07-21 03:00:00 19 4 Oeste 6 Sudoeste 0 -- -- 90
2019-07-21 02:00:00 19.3 5 Sudoeste 9 Sudoeste 0 -- -- 90
2019-07-21 01:00:00 19.3 7 Sudoeste 12 Sudoeste 0 -- -- 91
2019-07-21 00:00:00 19 10 Sudoeste 14 Sudoeste 0 -- -- 91
2019-07-20 23:00:00 19.5 3 Sudoeste 9 Noroeste 0 -- -- 87
2019-07-20 22:00:00 19.8 5 Noroeste 14 Noroeste 0 -- -- 85
2019-07-20 21:00:00 20 9 Noroeste 15 Norte 0 -- -- 86
2019-07-20 20:00:00 20.1 10 Noroeste 14 Noroeste 0 -- -- 85
2019-07-20 19:00:00 20.6 7 Noroeste 11 Noroeste 0 -- -- 85
2019-07-20 18:00:00 20.7 4 Noroeste 10 Norte 0 -- -- 87
2019-07-20 17:00:00 20.8 4 Noroeste 18 Noroeste 0 -- -- 87
2019-07-20 16:00:00 21.4 8 Noroeste 18 Noroeste 0 -- -- 85
2019-07-20 15:00:00 21.2 10 Noroeste 22 Noroeste 0 -- -- 86
2019-07-20 14:00:00 21.1 13 Noroeste 22 Noroeste 0 -- -- 83
2019-07-20 13:00:00 21.2 11 Noroeste 23 Oeste 0 -- -- 76
2019-07-20 12:00:00 21.9 14 Oeste 21 Oeste 0 -- -- 72
2019-07-20 11:00:00 21.5 11 Oeste 18 Sudoeste 0 -- -- 76
2019-07-20 10:00:00 19.8 14 Sudoeste 19 Sudoeste 0 -- -- 88
2019-07-20 09:00:00 19.4 13 Sudoeste 18 Oeste 0 -- -- 92
2019-07-20 08:00:00 18.2 12 Oeste 20 Oeste 0 -- -- 92
2019-07-20 07:00:00 17.7 13 Sudoeste 18 Sudoeste 0 -- -- 92
2019-07-20 06:00:00 17.2 12 Sudoeste 17 Oeste 0 -- -- 92
2019-07-20 05:00:00 17.5 13 Sudoeste 17 Sudoeste 0 -- -- 92
2019-07-20 04:00:00 18.1 13 Oeste 18 Oeste 0 -- -- 92
2019-07-20 03:00:00 18.8 11 Oeste 18 Oeste 0 -- -- 92
2019-07-20 02:00:00 18 14 Sudoeste 17 Oeste 0 -- -- 93
2019-07-20 01:00:00 18.2 12 Oeste 17 Oeste 0 -- -- 93
2019-07-20 00:00:00 18.7 10 Oeste 14 Oeste 0 -- -- 92
2019-07-19 23:00:00 19.3 5 Oeste 8 Sudoeste 0 -- -- 90
2019-07-19 22:00:00 20.1 0 Calma 9 Este 0 -- -- 87
2019-07-19 21:00:00 20.7 6 Este 13 Este 0 -- -- 87
2019-07-19 20:00:00 21.1 9 Este 16 Este 0 -- -- 84
2019-07-19 19:00:00 21.5 10 Este 18 Este 0 -- -- 83
2019-07-19 18:00:00 21.5 13 Este 23 Este 0 -- -- 82
2019-07-19 17:00:00 21.5 13 Este 25 Este 0 -- -- 81
2019-07-19 16:00:00 21.8 13 Este 23 Sudeste 0 -- -- 79
2019-07-19 15:00:00 21.6 15 Sudeste 26 Este 0 -- -- 76
2019-07-19 14:00:00 21.4 10 Este 21 Este 0 -- -- 82
2019-07-19 13:00:00 21.5 9 Este 18 Sudeste 0 -- -- 81
2019-07-19 12:00:00 20.4 10 Este 17 Este 0 -- -- 82
2019-07-19 11:00:00 20.3 8 Este 14 Este 0 -- -- 76
2019-07-19 10:00:00 19.9 4 Nordeste 10 Este 0 -- -- 75
2019-07-19 09:00:00 19.6 5 Este 9 Este 0 -- -- 81
2019-07-19 08:00:00 18 0 Calma 5 Sudeste 0 -- -- 88
2019-07-19 07:00:00 16.4 3 Sur 7 Sur 0 -- -- 90
2019-07-19 06:00:00 17.2 4 Sudeste 12 Sudeste 0 -- -- 90
2019-07-19 05:00:00 17.6 8 Sudeste 14 Sudeste 0 -- -- 90
2019-07-19 04:00:00 17.7 3 Sudeste 10 Sudeste 0 -- -- 90
2019-07-19 03:00:00 17.9 2 Sur 7 Sur 0 -- -- 91
2019-07-19 02:00:00 18 6 Sudoeste 7 Sudoeste 0 -- -- 90
2019-07-19 01:00:00 17.8 3 Sur 6 Sur 0 -- -- 91
2019-07-19 00:00:00 19.1 3 Sur 7 Sur 0 -- -- 88